sensor_id;sensor_type;location;lat;lon;timestamp;temperature;humidity
61412;DHT22;47278;49.732;7.690;2024-01-30T00:00:21;-0.20;99.90
61412;DHT22;47278;49.732;7.690;2024-01-30T00:02:48;0.10;99.90
61412;DHT22;47278;49.732;7.690;2024-01-30T00:05:14;-0.30;99.90
61412;DHT22;47278;49.732;7.690;2024-01-30T00:07:40;-0.30;99.90
61412;DHT22;47278;49.732;7.690;2024-01-30T00:10:05;-0.30;99.90
61412;DHT22;47278;49.732;7.690;2024-01-30T00:12:31;-0.30;99.90
61412;DHT22;47278;49.732;7.690;2024-01-30T00:14:57;-0.20;99.90
61412;DHT22;47278;49.732;7.690;2024-01-30T00:17:23;-0.30;99.90
61412;DHT22;47278;49.732;7.690;2024-01-30T00:19:51;-0.30;99.90
61412;DHT22;47278;49.732;7.690;2024-01-30T00:22:18;0.70;99.90
61412;DHT22;47278;49.732;7.690;2024-01-30T00:24:44;-0.30;99.90
61412;DHT22;47278;49.732;7.690;2024-01-30T00:27:10;-0.40;99.90
61412;DHT22;47278;49.732;7.690;2024-01-30T00:29:35;-0.40;99.90
61412;DHT22;47278;49.732;7.690;2024-01-30T00:32:02;-0.40;99.90
61412;DHT22;47278;49.732;7.690;2024-01-30T00:34:28;-0.40;99.90
61412;DHT22;47278;49.732;7.690;2024-01-30T00:36:54;-0.30;99.90
61412;DHT22;47278;49.732;7.690;2024-01-30T00:39:20;-0.50;99.90
61412;DHT22;47278;49.732;7.690;2024-01-30T00:41:45;0.10;99.90
61412;DHT22;47278;49.732;7.690;2024-01-30T00:44:11;-0.60;99.90
61412;DHT22;47278;49.732;7.690;2024-01-30T00:46:38;-0.60;99.90
61412;DHT22;47278;49.732;7.690;2024-01-30T00:49:04;-0.60;99.90
61412;DHT22;47278;49.732;7.690;2024-01-30T00:51:30;-0.60;99.90
61412;DHT22;47278;49.732;7.690;2024-01-30T00:53:55;-0.60;99.90
61412;DHT22;47278;49.732;7.690;2024-01-30T00:56:21;-0.60;99.90
61412;DHT22;47278;49.732;7.690;2024-01-30T00:58:49;-0.60;99.90
61412;DHT22;47278;49.732;7.690;2024-01-30T01:01:16;-0.70;99.90
61412;DHT22;47278;49.732;7.690;2024-01-30T01:03:41;-0.70;99.90
61412;DHT22;47278;49.732;7.690;2024-01-30T01:06:09;-0.80;99.90
61412;DHT22;47278;49.732;7.690;2024-01-30T01:08:36;-0.70;99.90
61412;DHT22;47278;49.732;7.690;2024-01-30T01:11:02;-0.80;99.90
61412;DHT22;47278;49.732;7.690;2024-01-30T01:13:28;-0.60;99.90
61412;DHT22;47278;49.732;7.690;2024-01-30T01:15:55;-0.60;99.90
61412;DHT22;47278;49.732;7.690;2024-01-30T01:18:22;-0.70;99.90
61412;DHT22;47278;49.732;7.690;2024-01-30T01:20:48;-0.10;99.90
61412;DHT22;47278;49.732;7.690;2024-01-30T01:23:15;0.10;99.90
61412;DHT22;47278;49.732;7.690;2024-01-30T01:25:42;-0.70;99.90
61412;DHT22;47278;49.732;7.690;2024-01-30T01:28:08;-0.70;99.90
61412;DHT22;47278;49.732;7.690;2024-01-30T01:30:34;-0.70;99.90
61412;DHT22;47278;49.732;7.690;2024-01-30T01:32:59;-0.70;99.90
61412;DHT22;47278;49.732;7.690;2024-01-30T01:35:27;-0.70;99.90
61412;DHT22;47278;49.732;7.690;2024-01-30T01:37:54;-0.70;99.90
61412;DHT22;47278;49.732;7.690;2024-01-30T01:40:24;-0.70;99.90
61412;DHT22;47278;49.732;7.690;2024-01-30T01:42:52;-0.70;99.90
61412;DHT22;47278;49.732;7.690;2024-01-30T01:45:18;-0.80;99.90
61412;DHT22;47278;49.732;7.690;2024-01-30T01:47:44;-0.70;99.90
61412;DHT22;47278;49.732;7.690;2024-01-30T01:50:12;-0.70;99.90
61412;DHT22;47278;49.732;7.690;2024-01-30T01:52:38;-0.60;99.90
61412;DHT22;47278;49.732;7.690;2024-01-30T01:55:06;-0.60;99.90
61412;DHT22;47278;49.732;7.690;2024-01-30T01:57:31;-0.80;99.90
61412;DHT22;47278;49.732;7.690;2024-01-30T01:59:58;-0.90;99.90
61412;DHT22;47278;49.732;7.690;2024-01-30T02:02:23;-0.90;99.90
61412;DHT22;47278;49.732;7.690;2024-01-30T02:04:49;-0.90;99.90
61412;DHT22;47278;49.732;7.690;2024-01-30T02:07:15;-0.90;99.90
61412;DHT22;47278;49.732;7.690;2024-01-30T02:09:41;-1.00;99.90
61412;DHT22;47278;49.732;7.690;2024-01-30T02:12:09;-1.00;99.90
61412;DHT22;47278;49.732;7.690;2024-01-30T02:14:45;-1.10;99.90
61412;DHT22;47278;49.732;7.690;2024-01-30T02:17:12;-1.10;99.90
61412;DHT22;47278;49.732;7.690;2024-01-30T02:19:38;-1.00;99.90
61412;DHT22;47278;49.732;7.690;2024-01-30T02:22:04;-0.90;99.90
61412;DHT22;47278;49.732;7.690;2024-01-30T02:24:29;0.10;99.90
61412;DHT22;47278;49.732;7.690;2024-01-30T02:26:56;-0.90;99.90
61412;DHT22;47278;49.732;7.690;2024-01-30T02:29:22;-0.90;99.90
61412;DHT22;47278;49.732;7.690;2024-01-30T02:31:47;-1.00;99.90
61412;DHT22;47278;49.732;7.690;2024-01-30T02:34:14;-1.00;99.90
61412;DHT22;47278;49.732;7.690;2024-01-30T02:36:42;-1.00;99.90
61412;DHT22;47278;49.732;7.690;2024-01-30T02:39:10;-1.10;99.90
61412;DHT22;47278;49.732;7.690;2024-01-30T02:41:36;-1.10;99.90
61412;DHT22;47278;49.732;7.690;2024-01-30T02:44:02;-1.00;99.90
61412;DHT22;47278;49.732;7.690;2024-01-30T02:46:28;-0.80;99.90
61412;DHT22;47278;49.732;7.690;2024-01-30T02:48:53;-0.90;99.90
61412;DHT22;47278;49.732;7.690;2024-01-30T02:51:20;-1.00;99.90
61412;DHT22;47278;49.732;7.690;2024-01-30T02:53:46;-1.10;99.90
61412;DHT22;47278;49.732;7.690;2024-01-30T02:56:11;-1.10;99.90
61412;DHT22;47278;49.732;7.690;2024-01-30T02:58:41;-1.10;99.90
61412;DHT22;47278;49.732;7.690;2024-01-30T03:01:07;-1.10;99.90
61412;DHT22;47278;49.732;7.690;2024-01-30T03:03:33;-1.20;99.90
61412;DHT22;47278;49.732;7.690;2024-01-30T03:06:02;-1.00;99.90
61412;DHT22;47278;49.732;7.690;2024-01-30T03:08:28;-1.10;99.90
61412;DHT22;47278;49.732;7.690;2024-01-30T03:10:53;-1.20;99.90
61412;DHT22;47278;49.732;7.690;2024-01-30T03:13:21;-1.20;99.90
61412;DHT22;47278;49.732;7.690;2024-01-30T03:15:48;-1.20;99.90
61412;DHT22;47278;49.732;7.690;2024-01-30T03:18:14;-1.30;99.90
61412;DHT22;47278;49.732;7.690;2024-01-30T03:20:39;-1.30;99.90
61412;DHT22;47278;49.732;7.690;2024-01-30T03:23:06;-1.30;99.90
61412;DHT22;47278;49.732;7.690;2024-01-30T03:25:32;-1.30;99.90
61412;DHT22;47278;49.732;7.690;2024-01-30T03:27:57;-1.30;99.90
61412;DHT22;47278;49.732;7.690;2024-01-30T03:30:24;-1.40;99.90
61412;DHT22;47278;49.732;7.690;2024-01-30T03:32:50;-1.30;99.90
61412;DHT22;47278;49.732;7.690;2024-01-30T03:35:16;-1.30;99.90
61412;DHT22;47278;49.732;7.690;2024-01-30T03:37:42;-1.30;99.90
61412;DHT22;47278;49.732;7.690;2024-01-30T03:40:08;-1.30;99.90
61412;DHT22;47278;49.732;7.690;2024-01-30T03:42:34;-1.30;99.90
61412;DHT22;47278;49.732;7.690;2024-01-30T03:45:00;-1.30;99.90
61412;DHT22;47278;49.732;7.690;2024-01-30T03:47:26;-1.20;99.90
61412;DHT22;47278;49.732;7.690;2024-01-30T03:49:52;-1.20;99.90
61412;DHT22;47278;49.732;7.690;2024-01-30T03:52:17;-1.20;99.90
61412;DHT22;47278;49.732;7.690;2024-01-30T03:54:44;-0.90;99.90
61412;DHT22;47278;49.732;7.690;2024-01-30T03:57:10;-1.30;99.90
61412;DHT22;47278;49.732;7.690;2024-01-30T03:59:36;-1.30;99.90
61412;DHT22;47278;49.732;7.690;2024-01-30T04:02:02;-1.30;99.90
61412;DHT22;47278;49.732;7.690;2024-01-30T04:04:28;-1.30;99.90
61412;DHT22;47278;49.732;7.690;2024-01-30T04:06:54;-1.30;99.90
61412;DHT22;47278;49.732;7.690;2024-01-30T04:09:19;-1.30;99.90
61412;DHT22;47278;49.732;7.690;2024-01-30T04:11:46;-1.40;99.90
61412;DHT22;47278;49.732;7.690;2024-01-30T04:14:12;-1.30;99.90
61412;DHT22;47278;49.732;7.690;2024-01-30T04:16:38;-1.30;99.90
61412;DHT22;47278;49.732;7.690;2024-01-30T04:19:03;-1.30;99.90
61412;DHT22;47278;49.732;7.690;2024-01-30T04:21:30;-1.30;99.90
61412;DHT22;47278;49.732;7.690;2024-01-30T04:23:56;-1.30;99.90
61412;DHT22;47278;49.732;7.690;2024-01-30T04:26:22;-1.40;99.90
61412;DHT22;47278;49.732;7.690;2024-01-30T04:28:47;-1.30;99.90
61412;DHT22;47278;49.732;7.690;2024-01-30T04:31:14;-1.30;99.90
61412;DHT22;47278;49.732;7.690;2024-01-30T04:33:39;-1.30;99.90
61412;DHT22;47278;49.732;7.690;2024-01-30T04:36:07;-1.20;99.90
61412;DHT22;47278;49.732;7.690;2024-01-30T04:38:34;-1.20;99.90
61412;DHT22;47278;49.732;7.690;2024-01-30T04:41:00;-1.20;99.90
61412;DHT22;47278;49.732;7.690;2024-01-30T04:43:25;-1.10;99.90
61412;DHT22;47278;49.732;7.690;2024-01-30T04:45:52;-1.10;99.90
61412;DHT22;47278;49.732;7.690;2024-01-30T04:48:18;-1.10;99.90
61412;DHT22;47278;49.732;7.690;2024-01-30T04:50:44;-1.00;99.90
61412;DHT22;47278;49.732;7.690;2024-01-30T04:53:09;-1.00;99.90
61412;DHT22;47278;49.732;7.690;2024-01-30T04:55:35;-0.10;99.90
61412;DHT22;47278;49.732;7.690;2024-01-30T04:58:02;-1.00;99.90
61412;DHT22;47278;49.732;7.690;2024-01-30T05:00:27;-1.00;99.90
61412;DHT22;47278;49.732;7.690;2024-01-30T05:02:54;-1.10;99.90
61412;DHT22;47278;49.732;7.690;2024-01-30T05:05:20;-0.90;99.90
61412;DHT22;47278;49.732;7.690;2024-01-30T05:07:47;-0.90;99.90
61412;DHT22;47278;49.732;7.690;2024-01-30T05:10:14;-1.10;99.90
61412;DHT22;47278;49.732;7.690;2024-01-30T05:12:40;-1.10;99.90
61412;DHT22;47278;49.732;7.690;2024-01-30T05:15:06;-1.20;99.90
61412;DHT22;47278;49.732;7.690;2024-01-30T05:17:32;-1.20;99.90
61412;DHT22;47278;49.732;7.690;2024-01-30T05:19:58;0.10;99.90
61412;DHT22;47278;49.732;7.690;2024-01-30T05:22:24;-1.10;99.90
61412;DHT22;47278;49.732;7.690;2024-01-30T05:24:49;-1.20;99.90
61412;DHT22;47278;49.732;7.690;2024-01-30T05:27:15;-1.20;99.90
61412;DHT22;47278;49.732;7.690;2024-01-30T05:29:41;-1.10;99.90
61412;DHT22;47278;49.732;7.690;2024-01-30T05:32:08;-1.10;99.90
61412;DHT22;47278;49.732;7.690;2024-01-30T05:34:34;-1.00;99.90
61412;DHT22;47278;49.732;7.690;2024-01-30T05:37:00;-1.10;99.90
61412;DHT22;47278;49.732;7.690;2024-01-30T05:39:28;-1.00;99.90
61412;DHT22;47278;49.732;7.690;2024-01-30T05:41:53;-1.10;99.90
61412;DHT22;47278;49.732;7.690;2024-01-30T05:44:19;-1.00;99.90
61412;DHT22;47278;49.732;7.690;2024-01-30T05:46:46;-0.90;99.90
61412;DHT22;47278;49.732;7.690;2024-01-30T05:49:11;-0.90;99.90
61412;DHT22;47278;49.732;7.690;2024-01-30T05:51:37;-0.90;99.90
61412;DHT22;47278;49.732;7.690;2024-01-30T05:54:04;-1.00;99.90
61412;DHT22;47278;49.732;7.690;2024-01-30T05:56:30;-1.00;99.90
61412;DHT22;47278;49.732;7.690;2024-01-30T05:58:56;-1.00;99.90
61412;DHT22;47278;49.732;7.690;2024-01-30T06:01:21;-1.00;99.90
61412;DHT22;47278;49.732;7.690;2024-01-30T06:03:47;-1.00;99.90
61412;DHT22;47278;49.732;7.690;2024-01-30T06:06:14;-1.00;99.90
61412;DHT22;47278;49.732;7.690;2024-01-30T06:08:40;-1.00;99.90
61412;DHT22;47278;49.732;7.690;2024-01-30T06:11:09;-1.00;99.90
61412;DHT22;47278;49.732;7.690;2024-01-30T06:13:35;-1.00;99.90
61412;DHT22;47278;49.732;7.690;2024-01-30T06:16:02;-0.90;99.90
61412;DHT22;47278;49.732;7.690;2024-01-30T06:18:27;-1.00;99.90
61412;DHT22;47278;49.732;7.690;2024-01-30T06:20:55;-1.00;99.90
61412;DHT22;47278;49.732;7.690;2024-01-30T06:23:21;-0.90;99.90
61412;DHT22;47278;49.732;7.690;2024-01-30T06:25:47;-1.00;99.90
61412;DHT22;47278;49.732;7.690;2024-01-30T06:28:14;-1.10;99.90
61412;DHT22;47278;49.732;7.690;2024-01-30T06:30:40;-1.00;99.90
61412;DHT22;47278;49.732;7.690;2024-01-30T06:33:05;-1.00;99.90
61412;DHT22;47278;49.732;7.690;2024-01-30T06:35:32;-0.90;99.90
61412;DHT22;47278;49.732;7.690;2024-01-30T06:37:58;-0.90;99.90
61412;DHT22;47278;49.732;7.690;2024-01-30T06:40:24;-1.00;99.90
61412;DHT22;47278;49.732;7.690;2024-01-30T06:42:49;-1.00;99.90
61412;DHT22;47278;49.732;7.690;2024-01-30T06:45:16;-1.00;99.90
61412;DHT22;47278;49.732;7.690;2024-01-30T06:47:42;-1.00;99.90
61412;DHT22;47278;49.732;7.690;2024-01-30T06:50:08;-0.80;99.90
61412;DHT22;47278;49.732;7.690;2024-01-30T06:52:34;-0.80;99.90
61412;DHT22;47278;49.732;7.690;2024-01-30T06:55:00;-0.90;99.90
61412;DHT22;47278;49.732;7.690;2024-01-30T06:57:26;-1.10;99.90
61412;DHT22;47278;49.732;7.690;2024-01-30T06:59:53;-1.00;99.90
61412;DHT22;47278;49.732;7.690;2024-01-30T07:02:20;-1.10;99.90
61412;DHT22;47278;49.732;7.690;2024-01-30T07:04:46;-1.20;99.90
61412;DHT22;47278;49.732;7.690;2024-01-30T07:07:12;-1.20;99.90
61412;DHT22;47278;49.732;7.690;2024-01-30T07:09:38;-1.10;99.90
61412;DHT22;47278;49.732;7.690;2024-01-30T07:12:04;-1.20;99.90
61412;DHT22;47278;49.732;7.690;2024-01-30T07:14:31;-1.30;99.90
61412;DHT22;47278;49.732;7.690;2024-01-30T07:16:58;-1.30;99.90
61412;DHT22;47278;49.732;7.690;2024-01-30T07:19:24;-1.20;99.90
61412;DHT22;47278;49.732;7.690;2024-01-30T07:21:50;-1.30;99.90
61412;DHT22;47278;49.732;7.690;2024-01-30T07:24:16;-1.20;99.90
61412;DHT22;47278;49.732;7.690;2024-01-30T07:26:41;-1.20;99.90
61412;DHT22;47278;49.732;7.690;2024-01-30T07:29:08;-1.20;99.90
61412;DHT22;47278;49.732;7.690;2024-01-30T07:31:34;-1.20;99.90
61412;DHT22;47278;49.732;7.690;2024-01-30T07:34:00;-1.20;99.90
61412;DHT22;47278;49.732;7.690;2024-01-30T07:36:26;-1.10;99.90
61412;DHT22;47278;49.732;7.690;2024-01-30T07:38:52;-1.00;99.90
61412;DHT22;47278;49.732;7.690;2024-01-30T07:41:19;-1.00;99.90
61412;DHT22;47278;49.732;7.690;2024-01-30T07:43:45;-0.90;99.90
61412;DHT22;47278;49.732;7.690;2024-01-30T07:46:11;-0.90;99.90
61412;DHT22;47278;49.732;7.690;2024-01-30T07:48:38;-0.70;99.90
61412;DHT22;47278;49.732;7.690;2024-01-30T07:51:04;-0.90;99.90
61412;DHT22;47278;49.732;7.690;2024-01-30T07:53:29;-0.80;99.90
61412;DHT22;47278;49.732;7.690;2024-01-30T07:55:56;-0.80;99.90
61412;DHT22;47278;49.732;7.690;2024-01-30T07:58:22;-0.80;99.90
61412;DHT22;47278;49.732;7.690;2024-01-30T08:00:49;-0.80;99.90
61412;DHT22;47278;49.732;7.690;2024-01-30T08:03:14;-0.70;99.90
61412;DHT22;47278;49.732;7.690;2024-01-30T08:05:41;-0.60;99.90
61412;DHT22;47278;49.732;7.690;2024-01-30T08:08:07;-0.50;99.90
61412;DHT22;47278;49.732;7.690;2024-01-30T08:10:34;-0.60;99.90
61412;DHT22;47278;49.732;7.690;2024-01-30T08:12:59;-0.60;99.90
61412;DHT22;47278;49.732;7.690;2024-01-30T08:15:26;-0.60;99.90
61412;DHT22;47278;49.732;7.690;2024-01-30T08:17:52;-0.50;99.90
61412;DHT22;47278;49.732;7.690;2024-01-30T08:20:23;-0.40;99.90
61412;DHT22;47278;49.732;7.690;2024-01-30T08:22:49;-0.40;99.90
61412;DHT22;47278;49.732;7.690;2024-01-30T08:25:14;-0.30;99.90
61412;DHT22;47278;49.732;7.690;2024-01-30T08:27:40;-0.30;99.90
61412;DHT22;47278;49.732;7.690;2024-01-30T08:30:06;-0.30;99.90
61412;DHT22;47278;49.732;7.690;2024-01-30T08:32:32;-0.20;99.90
61412;DHT22;47278;49.732;7.690;2024-01-30T08:34:59;-0.20;99.90
61412;DHT22;47278;49.732;7.690;2024-01-30T08:37:24;-0.10;99.90
61412;DHT22;47278;49.732;7.690;2024-01-30T08:39:50;0.10;99.90
61412;DHT22;47278;49.732;7.690;2024-01-30T08:42:16;0.00;99.90
61412;DHT22;47278;49.732;7.690;2024-01-30T08:44:43;0.00;99.90
61412;DHT22;47278;49.732;7.690;2024-01-30T08:47:10;0.10;99.90
61412;DHT22;47278;49.732;7.690;2024-01-30T08:49:36;0.00;99.90
61412;DHT22;47278;49.732;7.690;2024-01-30T08:52:01;0.10;99.90
61412;DHT22;47278;49.732;7.690;2024-01-30T08:54:27;0.20;99.90
61412;DHT22;47278;49.732;7.690;2024-01-30T08:56:52;0.20;99.90
61412;DHT22;47278;49.732;7.690;2024-01-30T08:59:18;0.20;99.90
61412;DHT22;47278;49.732;7.690;2024-01-30T09:01:44;0.30;99.90
61412;DHT22;47278;49.732;7.690;2024-01-30T09:04:12;0.40;99.90
61412;DHT22;47278;49.732;7.690;2024-01-30T09:06:38;0.40;99.90
61412;DHT22;47278;49.732;7.690;2024-01-30T09:09:04;0.40;99.90
61412;DHT22;47278;49.732;7.690;2024-01-30T09:11:31;0.60;99.90
61412;DHT22;47278;49.732;7.690;2024-01-30T09:13:56;0.60;99.90
61412;DHT22;47278;49.732;7.690;2024-01-30T09:16:22;0.70;99.90
61412;DHT22;47278;49.732;7.690;2024-01-30T09:18:48;0.80;99.90
61412;DHT22;47278;49.732;7.690;2024-01-30T09:21:14;0.80;99.90
61412;DHT22;47278;49.732;7.690;2024-01-30T09:23:40;0.80;99.90
61412;DHT22;47278;49.732;7.690;2024-01-30T09:26:06;0.90;99.90
61412;DHT22;47278;49.732;7.690;2024-01-30T09:28:31;1.00;99.90
61412;DHT22;47278;49.732;7.690;2024-01-30T09:30:58;1.10;99.90
61412;DHT22;47278;49.732;7.690;2024-01-30T09:33:24;1.10;99.90
61412;DHT22;47278;49.732;7.690;2024-01-30T09:35:50;1.10;99.90
61412;DHT22;47278;49.732;7.690;2024-01-30T09:38:16;1.20;99.90
61412;DHT22;47278;49.732;7.690;2024-01-30T09:40:42;1.20;99.90
61412;DHT22;47278;49.732;7.690;2024-01-30T09:43:08;1.40;99.90
61412;DHT22;47278;49.732;7.690;2024-01-30T09:45:36;1.40;99.90
61412;DHT22;47278;49.732;7.690;2024-01-30T09:48:02;1.50;99.90
61412;DHT22;47278;49.732;7.690;2024-01-30T09:50:29;1.60;99.90
61412;DHT22;47278;49.732;7.690;2024-01-30T09:52:55;1.80;99.90
61412;DHT22;47278;49.732;7.690;2024-01-30T09:55:22;1.80;99.90
61412;DHT22;47278;49.732;7.690;2024-01-30T09:57:48;2.00;99.90
61412;DHT22;47278;49.732;7.690;2024-01-30T10:00:13;1.80;99.90
61412;DHT22;47278;49.732;7.690;2024-01-30T10:02:40;1.90;99.90
61412;DHT22;47278;49.732;7.690;2024-01-30T10:05:05;1.90;99.90
61412;DHT22;47278;49.732;7.690;2024-01-30T10:07:32;2.00;99.90
61412;DHT22;47278;49.732;7.690;2024-01-30T10:09:58;2.10;99.90
61412;DHT22;47278;49.732;7.690;2024-01-30T10:12:25;2.10;99.90
61412;DHT22;47278;49.732;7.690;2024-01-30T10:14:52;4.50;99.90
61412;DHT22;47278;49.732;7.690;2024-01-30T10:17:19;2.10;99.90
61412;DHT22;47278;49.732;7.690;2024-01-30T10:19:46;2.10;99.90
61412;DHT22;47278;49.732;7.690;2024-01-30T10:22:12;2.20;99.90
61412;DHT22;47278;49.732;7.690;2024-01-30T10:24:38;3.60;99.90
61412;DHT22;47278;49.732;7.690;2024-01-30T10:27:05;2.20;99.90
61412;DHT22;47278;49.732;7.690;2024-01-30T10:29:31;2.30;99.90
61412;DHT22;47278;49.732;7.690;2024-01-30T10:32:01;2.40;99.90
61412;DHT22;47278;49.732;7.690;2024-01-30T10:34:28;2.40;99.90
61412;DHT22;47278;49.732;7.690;2024-01-30T10:37:10;2.40;99.90
61412;DHT22;47278;49.732;7.690;2024-01-30T10:39:41;2.50;99.90
61412;DHT22;47278;49.732;7.690;2024-01-30T10:42:10;2.60;99.90
61412;DHT22;47278;49.732;7.690;2024-01-30T10:44:37;2.60;99.90
61412;DHT22;47278;49.732;7.690;2024-01-30T10:47:06;2.60;99.90
61412;DHT22;47278;49.732;7.690;2024-01-30T10:49:34;2.70;99.90
61412;DHT22;47278;49.732;7.690;2024-01-30T10:52:00;2.70;99.90
61412;DHT22;47278;49.732;7.690;2024-01-30T10:54:26;2.80;99.90
61412;DHT22;47278;49.732;7.690;2024-01-30T10:56:53;2.80;99.90
61412;DHT22;47278;49.732;7.690;2024-01-30T10:59:19;2.90;99.90
61412;DHT22;47278;49.732;7.690;2024-01-30T11:01:45;3.00;99.90
61412;DHT22;47278;49.732;7.690;2024-01-30T11:04:11;3.00;99.90
61412;DHT22;47278;49.732;7.690;2024-01-30T11:06:41;3.20;99.90
61412;DHT22;47278;49.732;7.690;2024-01-30T11:09:10;3.30;99.90
61412;DHT22;47278;49.732;7.690;2024-01-30T11:11:59;3.20;99.90
61412;DHT22;47278;49.732;7.690;2024-01-30T11:14:31;3.30;99.90
61412;DHT22;47278;49.732;7.690;2024-01-30T11:16:59;3.30;99.90
61412;DHT22;47278;49.732;7.690;2024-01-30T11:19:25;3.50;99.90
61412;DHT22;47278;49.732;7.690;2024-01-30T11:21:51;3.60;99.90
61412;DHT22;47278;49.732;7.690;2024-01-30T11:24:19;3.70;99.90
61412;DHT22;47278;49.732;7.690;2024-01-30T11:26:47;3.80;99.90
61412;DHT22;47278;49.732;7.690;2024-01-30T11:29:13;4.10;99.90
61412;DHT22;47278;49.732;7.690;2024-01-30T11:31:51;4.20;99.90
61412;DHT22;47278;49.732;7.690;2024-01-30T11:34:16;4.50;99.90
61412;DHT22;47278;49.732;7.690;2024-01-30T11:36:42;4.80;99.90
61412;DHT22;47278;49.732;7.690;2024-01-30T11:39:08;5.00;99.90
61412;DHT22;47278;49.732;7.690;2024-01-30T11:41:34;5.20;99.90
61412;DHT22;47278;49.732;7.690;2024-01-30T11:44:03;7.80;99.90
61412;DHT22;47278;49.732;7.690;2024-01-30T11:46:29;5.50;99.90
61412;DHT22;47278;49.732;7.690;2024-01-30T11:48:54;5.90;99.90
61412;DHT22;47278;49.732;7.690;2024-01-30T11:51:20;6.20;99.90
61412;DHT22;47278;49.732;7.690;2024-01-30T11:53:49;6.10;99.90
61412;DHT22;47278;49.732;7.690;2024-01-30T11:56:15;5.80;99.90
61412;DHT22;47278;49.732;7.690;2024-01-30T11:58:43;6.10;99.90
61412;DHT22;47278;49.732;7.690;2024-01-30T12:01:10;6.00;99.90
61412;DHT22;47278;49.732;7.690;2024-01-30T12:03:36;6.10;99.90
61412;DHT22;47278;49.732;7.690;2024-01-30T12:06:02;6.20;99.90
61412;DHT22;47278;49.732;7.690;2024-01-30T12:08:28;6.20;99.90
61412;DHT22;47278;49.732;7.690;2024-01-30T12:10:57;6.40;99.90
61412;DHT22;47278;49.732;7.690;2024-01-30T12:13:27;6.40;99.90
61412;DHT22;47278;49.732;7.690;2024-01-30T12:15:54;6.40;99.90
61412;DHT22;47278;49.732;7.690;2024-01-30T12:18:20;6.50;99.90
61412;DHT22;47278;49.732;7.690;2024-01-30T12:20:56;6.60;99.90
61412;DHT22;47278;49.732;7.690;2024-01-30T12:23:21;6.70;99.90
61412;DHT22;47278;49.732;7.690;2024-01-30T12:25:51;6.80;99.90
61412;DHT22;47278;49.732;7.690;2024-01-30T12:28:16;6.80;99.90
61412;DHT22;47278;49.732;7.690;2024-01-30T12:30:42;7.00;99.90
61412;DHT22;47278;49.732;7.690;2024-01-30T12:33:08;7.10;99.90
61412;DHT22;47278;49.732;7.690;2024-01-30T12:35:35;7.20;99.90
61412;DHT22;47278;49.732;7.690;2024-01-30T12:38:01;7.30;99.90
61412;DHT22;47278;49.732;7.690;2024-01-30T12:40:27;7.40;99.90
61412;DHT22;47278;49.732;7.690;2024-01-30T12:42:53;7.60;99.90
61412;DHT22;47278;49.732;7.690;2024-01-30T12:45:20;7.80;99.90
61412;DHT22;47278;49.732;7.690;2024-01-30T12:47:47;7.90;99.90
61412;DHT22;47278;49.732;7.690;2024-01-30T12:50:13;8.10;99.90
61412;DHT22;47278;49.732;7.690;2024-01-30T12:52:42;8.40;99.90
61412;DHT22;47278;49.732;7.690;2024-01-30T12:55:08;9.20;99.90
61412;DHT22;47278;49.732;7.690;2024-01-30T12:57:33;9.60;99.90
61412;DHT22;47278;49.732;7.690;2024-01-30T13:00:00;9.80;99.90
61412;DHT22;47278;49.732;7.690;2024-01-30T13:02:26;10.20;99.90
61412;DHT22;47278;49.732;7.690;2024-01-30T13:05:00;10.10;99.90
61412;DHT22;47278;49.732;7.690;2024-01-30T13:07:25;10.30;99.90
61412;DHT22;47278;49.732;7.690;2024-01-30T13:09:52;10.40;99.90
61412;DHT22;47278;49.732;7.690;2024-01-30T13:12:17;10.50;99.90
61412;DHT22;47278;49.732;7.690;2024-01-30T13:14:44;10.60;99.90
61412;DHT22;47278;49.732;7.690;2024-01-30T13:17:10;11.00;99.90
61412;DHT22;47278;49.732;7.690;2024-01-30T13:19:36;10.70;99.90
61412;DHT22;47278;49.732;7.690;2024-01-30T13:22:02;10.70;99.90
61412;DHT22;47278;49.732;7.690;2024-01-30T13:24:28;10.80;99.90
61412;DHT22;47278;49.732;7.690;2024-01-30T13:26:54;10.90;99.90
61412;DHT22;47278;49.732;7.690;2024-01-30T13:29:20;10.90;99.90
61412;DHT22;47278;49.732;7.690;2024-01-30T13:31:45;10.90;99.90
61412;DHT22;47278;49.732;7.690;2024-01-30T13:34:12;10.90;99.90
61412;DHT22;47278;49.732;7.690;2024-01-30T13:36:39;11.00;99.90
61412;DHT22;47278;49.732;7.690;2024-01-30T13:39:04;11.00;99.90
61412;DHT22;47278;49.732;7.690;2024-01-30T13:41:34;11.00;99.90
61412;DHT22;47278;49.732;7.690;2024-01-30T13:43:59;11.00;99.90
61412;DHT22;47278;49.732;7.690;2024-01-30T13:46:29;11.00;99.90
61412;DHT22;47278;49.732;7.690;2024-01-30T13:48:54;11.00;99.90
61412;DHT22;47278;49.732;7.690;2024-01-30T13:51:20;11.00;99.90
61412;DHT22;47278;49.732;7.690;2024-01-30T13:53:46;10.90;99.90
61412;DHT22;47278;49.732;7.690;2024-01-30T13:56:12;11.00;99.90
61412;DHT22;47278;49.732;7.690;2024-01-30T13:58:38;10.90;99.90
61412;DHT22;47278;49.732;7.690;2024-01-30T14:01:04;10.90;99.90
61412;DHT22;47278;49.732;7.690;2024-01-30T14:03:30;10.80;99.90
61412;DHT22;47278;49.732;7.690;2024-01-30T14:05:56;10.80;99.90
61412;DHT22;47278;49.732;7.690;2024-01-30T14:08:22;10.80;99.90
61412;DHT22;47278;49.732;7.690;2024-01-30T14:10:52;10.70;99.90
61412;DHT22;47278;49.732;7.690;2024-01-30T14:13:18;10.70;99.90
61412;DHT22;47278;49.732;7.690;2024-01-30T14:15:45;10.70;99.90
61412;DHT22;47278;49.732;7.690;2024-01-30T14:18:11;10.70;99.90
61412;DHT22;47278;49.732;7.690;2024-01-30T14:20:36;10.60;99.90
61412;DHT22;47278;49.732;7.690;2024-01-30T14:23:02;10.60;99.90
61412;DHT22;47278;49.732;7.690;2024-01-30T14:25:28;10.60;99.90
61412;DHT22;47278;49.732;7.690;2024-01-30T14:27:54;10.50;99.90
61412;DHT22;47278;49.732;7.690;2024-01-30T14:30:19;10.50;99.90
61412;DHT22;47278;49.732;7.690;2024-01-30T14:32:46;10.50;99.90
61412;DHT22;47278;49.732;7.690;2024-01-30T14:35:13;10.60;99.90
61412;DHT22;47278;49.732;7.690;2024-01-30T14:37:38;10.60;99.90
61412;DHT22;47278;49.732;7.690;2024-01-30T14:40:05;10.60;99.90
61412;DHT22;47278;49.732;7.690;2024-01-30T14:42:32;10.60;99.90
61412;DHT22;47278;49.732;7.690;2024-01-30T14:44:58;10.70;99.90
61412;DHT22;47278;49.732;7.690;2024-01-30T14:47:24;10.60;99.90
61412;DHT22;47278;49.732;7.690;2024-01-30T14:49:50;10.60;99.90
61412;DHT22;47278;49.732;7.690;2024-01-30T14:52:17;10.70;99.90
61412;DHT22;47278;49.732;7.690;2024-01-30T14:54:42;10.70;99.90
61412;DHT22;47278;49.732;7.690;2024-01-30T14:57:09;10.60;99.90
61412;DHT22;47278;49.732;7.690;2024-01-30T14:59:35;10.60;99.90
61412;DHT22;47278;49.732;7.690;2024-01-30T15:02:00;10.60;99.90
61412;DHT22;47278;49.732;7.690;2024-01-30T15:04:26;10.60;99.90
61412;DHT22;47278;49.732;7.690;2024-01-30T15:06:52;10.70;99.90
61412;DHT22;47278;49.732;7.690;2024-01-30T15:09:18;10.70;99.90
61412;DHT22;47278;49.732;7.690;2024-01-30T15:11:44;10.60;99.90
61412;DHT22;47278;49.732;7.690;2024-01-30T15:14:10;10.50;99.90
61412;DHT22;47278;49.732;7.690;2024-01-30T15:16:36;10.60;99.90
61412;DHT22;47278;49.732;7.690;2024-01-30T15:19:02;10.50;99.90
61412;DHT22;47278;49.732;7.690;2024-01-30T15:21:30;10.30;99.90
61412;DHT22;47278;49.732;7.690;2024-01-30T15:23:55;10.20;99.90
61412;DHT22;47278;49.732;7.690;2024-01-30T15:26:23;10.10;99.90
61412;DHT22;47278;49.732;7.690;2024-01-30T15:28:48;10.10;99.90